sensor_id;sensor_type;location;lat;lon;timestamp;pressure;altitude;pressure_sealevel;temperature;humidity
30724;BME280;17473;52.286;20.930;2022-10-22T00:00:10;100030.22;;;9.43;97.87
30724;BME280;17473;52.286;20.930;2022-10-22T00:02:37;100032.81;;;9.41;97.89
30724;BME280;17473;52.286;20.930;2022-10-22T00:05:05;100030.94;;;9.38;97.84
30724;BME280;17473;52.286;20.930;2022-10-22T00:07:32;100043.38;;;9.43;97.95
30724;BME280;17473;52.286;20.930;2022-10-22T00:10:00;100030.94;;;9.38;98.34
30724;BME280;17473;52.286;20.930;2022-10-22T00:12:27;100032.19;;;9.50;98.27
30724;BME280;17473;52.286;20.930;2022-10-22T00:14:54;100025.06;;;9.46;98.27
30724;BME280;17473;52.286;20.930;2022-10-22T00:17:21;100022.41;;;9.46;98.40
30724;BME280;17473;52.286;20.930;2022-10-22T00:19:48;100020.63;;;9.45;98.29
30724;BME280;17473;52.286;20.930;2022-10-22T00:22:15;100011.00;;;9.47;98.07
30724;BME280;17473;52.286;20.930;2022-10-22T00:24:42;100013.75;;;9.50;98.01
30724;BME280;17473;52.286;20.930;2022-10-22T00:27:11;100011.91;;;9.47;97.93
30724;BME280;17473;52.286;20.930;2022-10-22T00:29:38;100017.19;;;9.47;98.53
30724;BME280;17473;52.286;20.930;2022-10-22T00:32:06;100010.78;;;9.39;98.73
30724;BME280;17473;52.286;20.930;2022-10-22T00:34:33;100004.81;;;9.45;98.42
30724;BME280;17473;52.286;20.930;2022-10-22T00:37:00;100005.69;;;9.45;98.45
30724;BME280;17473;52.286;20.930;2022-10-22T00:39:27;100003.59;;;9.35;99.53
30724;BME280;17473;52.286;20.930;2022-10-22T00:41:56;100001.91;;;9.37;99.35
30724;BME280;17473;52.286;20.930;2022-10-22T00:47:50;99989.47;;;9.60;97.92
30724;BME280;17473;52.286;20.930;2022-10-22T00:50:33;99985.09;;;9.61;98.06
30724;BME280;17473;52.286;20.930;2022-10-22T00:53:05;99993.69;;;9.82;97.15
30724;BME280;17473;52.286;20.930;2022-10-22T00:55:33;99981.31;;;9.52;98.54
30724;BME280;17473;52.286;20.930;2022-10-22T00:58:02;99990.22;;;9.56;99.09
30724;BME280;17473;52.286;20.930;2022-10-22T01:00:29;99984.94;;;9.56;98.68
30724;BME280;17473;52.286;20.930;2022-10-22T01:02:57;99982.28;;;9.54;99.18
30724;BME280;17473;52.286;20.930;2022-10-22T01:05:31;99972.72;;;9.58;99.09
30724;BME280;17473;52.286;20.930;2022-10-22T01:07:59;99965.72;;;9.59;99.48
30724;BME280;17473;52.286;20.930;2022-10-22T01:10:58;99956.03;;;9.58;99.06
30724;BME280;17473;52.286;20.930;2022-10-22T01:16:36;99966.75;;;9.64;98.61
30724;BME280;17473;52.286;20.930;2022-10-22T01:22:25;99971.88;;;9.59;99.39
30724;BME280;17473;52.286;20.930;2022-10-22T01:28:13;99946.25;;;9.55;100.00
30724;BME280;17473;52.286;20.930;2022-10-22T01:30:45;99959.53;;;9.58;100.00
30724;BME280;17473;52.286;20.930;2022-10-22T01:33:20;99952.75;;;9.66;100.00
30724;BME280;17473;52.286;20.930;2022-10-22T01:35:48;99951.06;;;9.68;100.00
30724;BME280;17473;52.286;20.930;2022-10-22T01:38:20;99950.56;;;9.82;100.00
30724;BME280;17473;52.286;20.930;2022-10-22T01:40:49;99951.31;;;9.76;100.00
30724;BME280;17473;52.286;20.930;2022-10-22T01:43:16;99946.44;;;9.90;99.08
30724;BME280;17473;52.286;20.930;2022-10-22T01:45:50;99953.81;;;9.71;99.76
30724;BME280;17473;52.286;20.930;2022-10-22T01:54:37;99957.50;;;9.78;100.00
30724;BME280;17473;52.286;20.930;2022-10-22T02:08:15;99942.91;;;9.61;100.00
30724;BME280;17473;52.286;20.930;2022-10-22T02:10:44;99944.00;;;9.67;100.00
30724;BME280;17473;52.286;20.930;2022-10-22T02:13:25;99937.38;;;9.82;100.00
30724;BME280;17473;52.286;20.930;2022-10-22T02:15:54;99931.66;;;9.66;100.00
30724;BME280;17473;52.286;20.930;2022-10-22T02:18:28;99935.22;;;9.67;100.00
30724;BME280;17473;52.286;20.930;2022-10-22T02:20:58;99930.72;;;9.64;100.00
30724;BME280;17473;52.286;20.930;2022-10-22T02:23:25;99930.53;;;9.58;100.00
30724;BME280;17473;52.286;20.930;2022-10-22T02:26:05;99935.09;;;9.64;100.00
30724;BME280;17473;52.286;20.930;2022-10-22T02:28:57;99938.44;;;9.58;100.00
30724;BME280;17473;52.286;20.930;2022-10-22T02:31:31;99937.06;;;9.71;100.00
30724;BME280;17473;52.286;20.930;2022-10-22T02:34:07;99943.84;;;9.63;100.00
30724;BME280;17473;52.286;20.930;2022-10-22T02:36:37;99940.34;;;9.62;100.00
30724;BME280;17473;52.286;20.930;2022-10-22T02:39:07;99947.63;;;9.71;100.00
30724;BME280;17473;52.286;20.930;2022-10-22T02:41:36;99941.19;;;9.61;100.00
30724;BME280;17473;52.286;20.930;2022-10-22T02:44:10;99949.84;;;9.86;100.00
30724;BME280;17473;52.286;20.930;2022-10-22T02:46:38;99939.41;;;9.60;100.00
30724;BME280;17473;52.286;20.930;2022-10-22T02:49:06;99935.66;;;9.53;100.00
30724;BME280;17473;52.286;20.930;2022-10-22T02:51:33;99940.19;;;9.58;100.00
30724;BME280;17473;52.286;20.930;2022-10-22T02:54:00;99941.03;;;9.57;100.00
30724;BME280;17473;52.286;20.930;2022-10-22T02:56:27;99949.13;;;9.92;100.00
30724;BME280;17473;52.286;20.930;2022-10-22T02:58:54;99942.66;;;9.82;100.00
30724;BME280;17473;52.286;20.930;2022-10-22T03:01:21;99946.44;;;9.90;100.00
30724;BME280;17473;52.286;20.930;2022-10-22T03:03:48;99935.06;;;9.62;100.00
30724;BME280;17473;52.286;20.930;2022-10-22T03:06:16;99944.09;;;9.70;100.00
30724;BME280;17473;52.286;20.930;2022-10-22T03:08:43;99933.97;;;9.55;100.00
30724;BME280;17473;52.286;20.930;2022-10-22T03:11:11;99942.88;;;9.59;100.00
30724;BME280;17473;52.286;20.930;2022-10-22T03:13:38;99939.66;;;9.68;100.00
30724;BME280;17473;52.286;20.930;2022-10-22T03:16:05;99928.22;;;9.69;100.00
30724;BME280;17473;52.286;20.930;2022-10-22T03:18:32;99926.72;;;9.77;100.00
30724;BME280;17473;52.286;20.930;2022-10-22T03:21:20;99930.00;;;9.70;100.00
30724;BME280;17473;52.286;20.930;2022-10-22T03:23:51;99926.59;;;9.73;100.00
30724;BME280;17473;52.286;20.930;2022-10-22T03:26:18;99931.94;;;9.76;100.00
30724;BME280;17473;52.286;20.930;2022-10-22T03:28:45;99927.63;;;9.78;100.00
30724;BME280;17473;52.286;20.930;2022-10-22T03:31:14;99920.16;;;9.64;100.00
30724;BME280;17473;52.286;20.930;2022-10-22T03:33:41;99925.78;;;9.75;100.00
30724;BME280;17473;52.286;20.930;2022-10-22T03:36:08;99927.47;;;9.73;100.00
30724;BME280;17473;52.286;20.930;2022-10-22T03:38:38;99919.72;;;9.78;100.00
30724;BME280;17473;52.286;20.930;2022-10-22T03:41:06;99932.13;;;9.82;100.00
30724;BME280;17473;52.286;20.930;2022-10-22T03:43:35;99939.66;;;9.68;100.00
30724;BME280;17473;52.286;20.930;2022-10-22T03:46:03;99937.56;;;9.58;100.00
30724;BME280;17473;52.286;20.930;2022-10-22T03:48:30;99954.97;;;9.81;100.00
30724;BME280;17473;52.286;20.930;2022-10-22T03:50:58;99952.38;;;9.83;100.00
30724;BME280;17473;52.286;20.930;2022-10-22T03:53:24;99954.66;;;9.70;100.00
30724;BME280;17473;52.286;20.930;2022-10-22T03:55:51;99943.19;;;9.70;100.00
30724;BME280;17473;52.286;20.930;2022-10-22T03:58:18;99927.66;;;9.79;100.00
30724;BME280;17473;52.286;20.930;2022-10-22T04:00:45;99924.13;;;9.79;100.00
30724;BME280;17473;52.286;20.930;2022-10-22T04:03:12;99928.31;;;9.72;100.00
30724;BME280;17473;52.286;20.930;2022-10-22T04:05:39;99930.22;;;9.76;100.00
30724;BME280;17473;52.286;20.930;2022-10-22T04:08:06;99935.22;;;9.97;100.00
30724;BME280;17473;52.286;20.930;2022-10-22T04:10:33;99948.31;;;9.94;100.00
30724;BME280;17473;52.286;20.930;2022-10-22T04:13:00;99936.66;;;9.86;100.00
30724;BME280;17473;52.286;20.930;2022-10-22T04:15:27;99930.16;;;9.75;100.00
30724;BME280;17473;52.286;20.930;2022-10-22T04:17:55;99930.25;;;9.78;100.00
30724;BME280;17473;52.286;20.930;2022-10-22T04:20:22;99915.19;;;9.74;100.00
30724;BME280;17473;52.286;20.930;2022-10-22T04:22:49;99931.34;;;9.84;100.00
30724;BME280;17473;52.286;20.930;2022-10-22T04:25:16;99920.44;;;10.04;100.00
30724;BME280;17473;52.286;20.930;2022-10-22T04:27:43;99910.84;;;9.76;100.00
30724;BME280;17473;52.286;20.930;2022-10-22T04:30:10;99902.09;;;9.77;100.00
30724;BME280;17473;52.286;20.930;2022-10-22T04:32:37;99900.31;;;9.76;100.00
30724;BME280;17473;52.286;20.930;2022-10-22T04:35:05;99901.63;;;9.90;100.00
30724;BME280;17473;52.286;20.930;2022-10-22T04:37:32;99902.41;;;9.87;100.00
30724;BME280;17473;52.286;20.930;2022-10-22T04:39:59;99902.66;;;9.97;100.00
30724;BME280;17473;52.286;20.930;2022-10-22T04:42:26;99893.56;;;9.85;100.00
30724;BME280;17473;52.286;20.930;2022-10-22T04:44:53;99889.94;;;9.82;100.00
30724;BME280;17473;52.286;20.930;2022-10-22T04:47:20;99884.88;;;9.90;100.00
30724;BME280;17473;52.286;20.930;2022-10-22T04:49:47;99888.44;;;9.90;100.00
30724;BME280;17473;52.286;20.930;2022-10-22T04:52:14;99885.97;;;9.96;100.00
30724;BME280;17473;52.286;20.930;2022-10-22T04:54:41;99886.78;;;9.94;100.00
30724;BME280;17473;52.286;20.930;2022-10-22T04:57:08;99891.50;;;10.06;100.00
30724;BME280;17473;52.286;20.930;2022-10-22T04:59:35;99897.38;;;9.97;100.00
30724;BME280;17473;52.286;20.930;2022-10-22T05:02:02;99899.06;;;9.93;100.00
30724;BME280;17473;52.286;20.930;2022-10-22T05:04:29;99899.25;;;9.99;100.00
30724;BME280;17473;52.286;20.930;2022-10-22T05:06:56;99905.38;;;9.98;100.00
30724;BME280;17473;52.286;20.930;2022-10-22T05:09:23;99903.56;;;9.97;100.00
30724;BME280;17473;52.286;20.930;2022-10-22T05:11:51;99897.53;;;10.01;100.00
30724;BME280;17473;52.286;20.930;2022-10-22T05:14:22;99905.16;;;9.92;100.00
30724;BME280;17473;52.286;20.930;2022-10-22T05:16:50;99906.13;;;9.94;100.00
30724;BME280;17473;52.286;20.930;2022-10-22T05:19:22;99896.84;;;10.09;100.00
30724;BME280;17473;52.286;20.930;2022-10-22T05:21:51;99906.13;;;9.94;100.00
30724;BME280;17473;52.286;20.930;2022-10-22T05:24:19;99906.25;;;9.99;100.00
30724;BME280;17473;52.286;20.930;2022-10-22T05:26:51;99922.06;;;9.99;100.00
30724;BME280;17473;52.286;20.930;2022-10-22T05:29:19;99916.84;;;10.32;100.00
30724;BME280;17473;52.286;20.930;2022-10-22T05:31:46;99921.19;;;10.30;100.00
30724;BME280;17473;52.286;20.930;2022-10-22T05:34:14;99919.84;;;10.14;100.00
30724;BME280;17473;52.286;20.930;2022-10-22T05:36:42;99909.50;;;10.21;100.00
30724;BME280;17473;52.286;20.930;2022-10-22T05:39:09;99914.59;;;10.14;100.00
30724;BME280;17473;52.286;20.930;2022-10-22T05:41:36;99913.28;;;9.98;100.00
30724;BME280;17473;52.286;20.930;2022-10-22T05:44:04;99908.13;;;10.03;100.00
30724;BME280;17473;52.286;20.930;2022-10-22T05:46:34;99911.88;;;10.11;100.00
30724;BME280;17473;52.286;20.930;2022-10-22T05:49:04;99909.16;;;10.08;100.00
30724;BME280;17473;52.286;20.930;2022-10-22T05:51:34;99910.34;;;10.20;100.00
30724;BME280;17473;52.286;20.930;2022-10-22T05:54:04;99910.72;;;10.33;100.00
30724;BME280;17473;52.286;20.930;2022-10-22T05:56:32;99904.13;;;10.17;100.00
30724;BME280;17473;52.286;20.930;2022-10-22T05:59:00;99904.81;;;10.10;100.00
30724;BME280;17473;52.286;20.930;2022-10-22T06:01:33;99898.38;;;10.32;100.00
30724;BME280;17473;52.286;20.930;2022-10-22T06:04:07;99889.66;;;10.35;100.00
30724;BME280;17473;52.286;20.930;2022-10-22T06:06:42;99909.81;;;10.33;100.00
30724;BME280;17473;52.286;20.930;2022-10-22T06:09:19;99915.09;;;10.33;100.00
30724;BME280;17473;52.286;20.930;2022-10-22T06:11:47;99911.63;;;10.36;100.00
30724;BME280;17473;52.286;20.930;2022-10-22T06:14:14;99918.25;;;10.50;100.00
30724;BME280;17473;52.286;20.930;2022-10-22T06:16:42;99919.13;;;10.51;100.00
30724;BME280;17473;52.286;20.930;2022-10-22T06:19:11;99924.47;;;10.52;100.00
30724;BME280;17473;52.286;20.930;2022-10-22T06:21:39;99914.75;;;10.51;100.00
30724;BME280;17473;52.286;20.930;2022-10-22T06:24:06;99918.47;;;10.59;100.00
30724;BME280;17473;52.286;20.930;2022-10-22T06:26:34;99917.50;;;10.56;100.00
30724;BME280;17473;52.286;20.930;2022-10-22T06:29:01;99913.91;;;10.52;100.00
30724;BME280;17473;52.286;20.930;2022-10-22T06:31:29;99934.28;;;10.58;100.00
30724;BME280;17473;52.286;20.930;2022-10-22T06:34:07;99926.44;;;10.61;100.00
30724;BME280;17473;52.286;20.930;2022-10-22T06:36:36;99930.84;;;10.60;100.00
30724;BME280;17473;52.286;20.930;2022-10-22T06:39:04;99936.06;;;10.59;100.00
30724;BME280;17473;52.286;20.930;2022-10-22T06:41:31;99945.69;;;10.57;100.00
30724;BME280;17473;52.286;20.930;2022-10-22T06:43:58;99933.34;;;10.56;100.00
30724;BME280;17473;52.286;20.930;2022-10-22T06:46:25;99928.19;;;10.60;100.00
30724;BME280;17473;52.286;20.930;2022-10-22T06:48:56;99935.88;;;10.51;100.00
30724;BME280;17473;52.286;20.930;2022-10-22T06:51:25;99945.63;;;10.55;100.00
30724;BME280;17473;52.286;20.930;2022-10-22T06:53:53;99950.34;;;10.67;100.00
30724;BME280;17473;52.286;20.930;2022-10-22T06:56:24;99944.31;;;10.71;100.00
30724;BME280;17473;52.286;20.930;2022-10-22T06:58:53;99931.97;;;10.72;100.00
30724;BME280;17473;52.286;20.930;2022-10-22T07:01:25;99927.72;;;10.75;100.00
30724;BME280;17473;52.286;20.930;2022-10-22T07:03:53;99945.53;;;10.86;100.00
30724;BME280;17473;52.286;20.930;2022-10-22T07:06:21;99948.19;;;10.86;100.00
30724;BME280;17473;52.286;20.930;2022-10-22T07:08:49;99957.44;;;11.03;100.00
30724;BME280;17473;52.286;20.930;2022-10-22T07:11:46;99973.72;;;10.85;100.00
30724;BME280;17473;52.286;20.930;2022-10-22T07:14:14;99968.66;;;10.93;100.00
30724;BME280;17473;52.286;20.930;2022-10-22T07:16:41;99977.81;;;10.74;100.00
30724;BME280;17473;52.286;20.930;2022-10-22T07:19:08;99970.84;;;10.76;100.00
30724;BME280;17473;52.286;20.930;2022-10-22T07:21:36;99972.94;;;10.89;100.00
30724;BME280;17473;52.286;20.930;2022-10-22T07:24:03;99982.63;;;11.25;100.00
30724;BME280;17473;52.286;20.930;2022-10-22T07:26:30;99977.66;;;11.01;100.00
30724;BME280;17473;52.286;20.930;2022-10-22T07:29:01;99977.44;;;10.92;100.00
30724;BME280;17473;52.286;20.930;2022-10-22T07:31:29;99982.97;;;11.03;100.00
30724;BME280;17473;52.286;20.930;2022-10-22T07:33:56;99972.53;;;11.07;100.00
30724;BME280;17473;52.286;20.930;2022-10-22T07:36:23;99965.25;;;10.99;100.00
30724;BME280;17473;52.286;20.930;2022-10-22T07:38:56;99966.06;;;10.96;100.00
30724;BME280;17473;52.286;20.930;2022-10-22T07:41:25;99957.44;;;11.03;100.00
30724;BME280;17473;52.286;20.930;2022-10-22T07:43:52;99953.16;;;11.07;100.00
30724;BME280;17473;52.286;20.930;2022-10-22T07:46:19;99959.50;;;11.15;100.00
30724;BME280;17473;52.286;20.930;2022-10-22T07:48:46;99960.50;;;11.20;100.00
30724;BME280;17473;52.286;20.930;2022-10-22T07:51:14;99954.28;;;11.18;100.00
30724;BME280;17473;52.286;20.930;2022-10-22T07:53:41;99954.28;;;11.18;100.00
30724;BME280;17473;52.286;20.930;2022-10-22T07:56:08;99955.34;;;11.25;100.00
30724;BME280;17473;52.286;20.930;2022-10-22T07:58:35;99953.69;;;11.30;100.00
30724;BME280;17473;52.286;20.930;2022-10-22T08:01:03;99963.06;;;11.54;100.00
30724;BME280;17473;52.286;20.930;2022-10-22T08:03:32;99955.91;;;11.50;100.00
30724;BME280;17473;52.286;20.930;2022-10-22T08:06:00;99968.13;;;11.45;100.00
30724;BME280;17473;52.286;20.930;2022-10-22T08:08:27;99965.81;;;11.58;100.00
30724;BME280;17473;52.286;20.930;2022-10-22T08:10:59;99966.75;;;11.61;100.00
30724;BME280;17473;52.286;20.930;2022-10-22T08:13:27;99972.91;;;11.59;100.00
30724;BME280;17473;52.286;20.930;2022-10-22T08:15:58;99965.94;;;11.63;100.00
30724;BME280;17473;52.286;20.930;2022-10-22T08:18:26;99976.63;;;11.69;100.00
30724;BME280;17473;52.286;20.930;2022-10-22T08:20:54;99983.75;;;11.72;100.00
30724;BME280;17473;52.286;20.930;2022-10-22T08:23:21;99988.16;;;11.73;100.00
30724;BME280;17473;52.286;20.930;2022-10-22T08:25:54;99982.88;;;11.73;100.00
30724;BME280;17473;52.286;20.930;2022-10-22T08:28:21;99978.56;;;11.77;100.00
30724;BME280;17473;52.286;20.930;2022-10-22T08:30:48;99989.13;;;11.77;100.00
30724;BME280;17473;52.286;20.930;2022-10-22T08:33:15;99983.69;;;11.69;100.00
30724;BME280;17473;52.286;20.930;2022-10-22T08:35:48;99988.50;;;11.88;100.00
30724;BME280;17473;52.286;20.930;2022-10-22T08:38:16;99988.25;;;11.76;100.00
30724;BME280;17473;52.286;20.930;2022-10-22T08:40:49;99988.69;;;11.96;100.00
30724;BME280;17473;52.286;20.930;2022-10-22T08:43:47;99981.38;;;11.84;100.00
30724;BME280;17473;52.286;20.930;2022-10-22T08:49:33;99981.19;;;11.75;100.00
30724;BME280;17473;52.286;20.930;2022-10-22T08:52:16;99979.50;;;11.79;100.00
30724;BME280;17473;52.286;20.930;2022-10-22T08:54:59;99979.41;;;11.75;100.00
30724;BME280;17473;52.286;20.930;2022-10-22T08:57:36;99980.69;;;11.93;100.00
30724;BME280;17473;52.286;20.930;2022-10-22T09:00:21;99993.16;;;11.97;100.00
30724;BME280;17473;52.286;20.930;2022-10-22T09:08:46;99998.84;;;12.16;100.00
30724;BME280;17473;52.286;20.930;2022-10-22T09:11:31;100019.91;;;12.10;100.00
30724;BME280;17473;52.286;20.930;2022-10-22T09:13:59;100023.81;;;12.27;100.00
30724;BME280;17473;52.286;20.930;2022-10-22T09:25:45;100021.84;;;12.18;100.00
30724;BME280;17473;52.286;20.930;2022-10-22T09:28:15;100014.97;;;12.28;100.00
30724;BME280;17473;52.286;20.930;2022-10-22T09:30:42;100002.19;;;12.07;100.00
30724;BME280;17473;52.286;20.930;2022-10-22T09:33:23;99997.94;;;12.15;100.00
30724;BME280;17473;52.286;20.930;2022-10-22T09:35:56;99998.72;;;12.10;100.00
30724;BME280;17473;52.286;20.930;2022-10-22T09:38:28;99998.53;;;12.00;100.00
30724;BME280;17473;52.286;20.930;2022-10-22T09:40:58;99993.25;;;12.00;100.00
30724;BME280;17473;52.286;20.930;2022-10-22T09:43:26;99988.56;;;12.31;100.00
30724;BME280;17473;52.286;20.930;2022-10-22T09:45:59;100000.47;;;12.11;100.00
30724;BME280;17473;52.286;20.930;2022-10-22T09:48:36;99988.25;;;12.14;100.00
30724;BME280;17473;52.286;20.930;2022-10-22T09:51:23;99986.44;;;12.13;100.00
30724;BME280;17473;52.286;20.930;2022-10-22T09:54:01;99985.41;;;12.07;100.00
30724;BME280;17473;52.286;20.930;2022-10-22T09:56:38;99982.13;;;12.18;100.00
30724;BME280;17473;52.286;20.930;2022-10-22T09:59:18;99987.91;;;12.43;100.00
30724;BME280;17473;52.286;20.930;2022-10-22T10:02:02;99990.72;;;12.51;100.00
30724;BME280;17473;52.286;20.930;2022-10-22T10:04:53;99984.56;;;12.50;100.00
30724;BME280;17473;52.286;20.930;2022-10-22T10:07:30;99996.03;;;12.52;100.00
30724;BME280;17473;52.286;20.930;2022-10-22T10:09:58;99991.78;;;12.59;100.00
30724;BME280;17473;52.286;20.930;2022-10-22T10:12:53;99997.94;;;12.60;100.00
30724;BME280;17473;52.286;20.930;2022-10-22T10:15:39;99992.75;;;12.64;100.00
30724;BME280;17473;52.286;20.930;2022-10-22T10:24:12;100001.91;;;12.82;100.00
30724;BME280;17473;52.286;20.930;2022-10-22T10:27:04;100006.66;;;13.02;100.00
30724;BME280;17473;52.286;20.930;2022-10-22T10:30:10;100015.09;;;12.77;100.00
30724;BME280;17473;52.286;20.930;2022-10-22T10:33:18;100010.41;;;12.65;100.00
30724;BME280;17473;52.286;20.930;2022-10-22T10:39:28;99988.25;;;12.60;100.00
30724;BME280;17473;52.286;20.930;2022-10-22T10:42:45;100007.78;;;12.65;100.00
30724;BME280;17473;52.286;20.930;2022-10-22T10:48:37;100017.50;;;12.66;100.00
30724;BME280;17473;52.286;20.930;2022-10-22T10:58:02;100024.44;;;12.60;100.00
30724;BME280;17473;52.286;20.930;2022-10-22T11:00:43;100017.28;;;12.54;100.00
30724;BME280;17473;52.286;20.930;2022-10-22T11:06:18;100012.84;;;12.53;100.00
30724;BME280;17473;52.286;20.930;2022-10-22T11:09:06;100004.91;;;12.53;100.00
30724;BME280;17473;52.286;20.930;2022-10-22T11:12:13;99998.69;;;12.52;100.00
30724;BME280;17473;52.286;20.930;2022-10-22T11:17:39;99996.22;;;12.62;100.00
30724;BME280;17473;52.286;20.930;2022-10-22T11:20:25;99988.53;;;12.74;100.00
30724;BME280;17473;52.286;20.930;2022-10-22T11:23:05;99985.69;;;12.63;100.00
30724;BME280;17473;52.286;20.930;2022-10-22T11:25:50;99992.88;;;12.71;100.00
30724;BME280;17473;52.286;20.930;2022-10-22T11:28:36;99992.72;;;12.63;100.00
30724;BME280;17473;52.286;20.930;2022-10-22T11:31:13;99991.09;;;12.71;100.00
30724;BME280;17473;52.286;20.930;2022-10-22T11:34:14;99988.34;;;12.65;100.00
30724;BME280;17473;52.286;20.930;2022-10-22T11:36:59;99990.16;;;12.67;100.00
30724;BME280;17473;52.286;20.930;2022-10-22T11:40:13;99979.38;;;12.58;100.00
30724;BME280;17473;52.286;20.930;2022-10-22T11:42:57;99986.09;;;12.87;100.00
30724;BME280;17473;52.286;20.930;2022-10-22T11:45:49;99973.66;;;12.82;100.00
30724;BME280;17473;52.286;20.930;2022-10-22T11:48:18;99983.34;;;12.82;100.00
30724;BME280;17473;52.286;20.930;2022-10-22T11:50:53;99991.25;;;12.79;100.00
30724;BME280;17473;52.286;20.930;2022-10-22T11:53:34;99985.47;;;13.00;100.00
30724;BME280;17473;52.286;20.930;2022-10-22T11:58:41;99978.09;;;12.83;100.00
30724;BME280;17473;52.286;20.930;2022-10-22T12:14:24;99942.81;;;12.88;100.00
30724;BME280;17473;52.286;20.930;2022-10-22T12:17:12;99954.53;;;13.00;100.00
30724;BME280;17473;52.286;20.930;2022-10-22T12:20:11;99958.00;;;12.96;100.00
30724;BME280;17473;52.286;20.930;2022-10-22T12:22:39;99950.22;;;13.04;100.00
30724;BME280;17473;52.286;20.930;2022-10-22T12:25:22;99949.66;;;13.27;100.00
30724;BME280;17473;52.286;20.930;2022-10-22T12:27:53;99953.94;;;13.17;100.00
30724;BME280;17473;52.286;20.930;2022-10-22T12:30:26;99950.31;;;13.12;100.00
30724;BME280;17473;52.286;20.930;2022-10-22T12:32:58;99939.66;;;13.09;100.00
30724;BME280;17473;52.286;20.930;2022-10-22T12:35:41;99943.34;;;13.19;100.00
30724;BME280;17473;52.286;20.930;2022-10-22T12:38:18;99941.97;;;13.42;100.00
30724;BME280;17473;52.286;20.930;2022-10-22T12:40:46;99938.47;;;13.43;100.00
30724;BME280;17473;52.286;20.930;2022-10-22T12:45:51;99932.91;;;13.28;100.00
30724;BME280;17473;52.286;20.930;2022-10-22T12:48:27;99941.06;;;13.40;100.00
30724;BME280;17473;52.286;20.930;2022-10-22T12:51:00;99937.53;;;13.41;100.00
30724;BME280;17473;52.286;20.930;2022-10-22T12:53:57;99943.84;;;13.50;100.00
30724;BME280;17473;52.286;20.930;2022-10-22T12:56:26;99938.53;;;13.46;100.00
30724;BME280;17473;52.286;20.930;2022-10-22T12:59:01;99936.69;;;13.42;100.00
30724;BME280;17473;52.286;20.930;2022-10-22T13:01:36;99960.03;;;13.67;100.00
30724;BME280;17473;52.286;20.930;2022-10-22T13:12:33;99967.72;;;13.50;100.00
30724;BME280;17473;52.286;20.930;2022-10-22T13:18:18;99968.63;;;13.52;100.00
30724;BME280;17473;52.286;20.930;2022-10-22T13:20:57;99968.56;;;13.47;100.00
30724;BME280;17473;52.286;20.930;2022-10-22T13:23:30;99969.72;;;13.63;100.00
30724;BME280;17473;52.286;20.930;2022-10-22T13:26:16;99967.09;;;13.66;100.00
30724;BME280;17473;52.286;20.930;2022-10-22T13:28:52;99968.75;;;13.58;100.00
30724;BME280;17473;52.286;20.930;2022-10-22T13:31:25;99969.66;;;13.60;100.00
30724;BME280;17473;52.286;20.930;2022-10-22T13:33:56;99964.13;;;13.46;100.00
30724;BME280;17473;52.286;20.930;2022-10-22T13:36:28;99961.59;;;13.54;100.00
30724;BME280;17473;52.286;20.930;2022-10-22T13:38:55;99959.91;;;13.59;100.00
30724;BME280;17473;52.286;20.930;2022-10-22T13:41:29;99960.63;;;13.47;100.00
30724;BME280;17473;52.286;20.930;2022-10-22T13:43:58;99949.16;;;13.50;100.00
30724;BME280;17473;52.286;20.930;2022-10-22T13:46:26;99963.25;;;13.47;100.00
30724;BME280;17473;52.286;20.930;2022-10-22T13:48:54;99957.78;;;13.38;100.00
30724;BME280;17473;52.286;20.930;2022-10-22T13:51:27;99957.88;;;13.41;100.00
30724;BME280;17473;52.286;20.930;2022-10-22T13:53:57;99955.34;;;13.49;100.00
30724;BME280;17473;52.286;20.930;2022-10-22T13:56:24;99960.53;;;13.41;100.00
30724;BME280;17473;52.286;20.930;2022-10-22T13:58:51;99963.88;;;13.30;100.00
30724;BME280;17473;52.286;20.930;2022-10-22T14:01:25;99955.81;;;13.24;100.00
30724;BME280;17473;52.286;20.930;2022-10-22T14:03:56;99955.13;;;13.36;100.00
30724;BME280;17473;52.286;20.930;2022-10-22T14:06:28;99947.00;;;13.25;100.00
30724;BME280;17473;52.286;20.930;2022-10-22T14:09:05;99942.44;;;13.18;100.00
30724;BME280;17473;52.286;20.930;2022-10-22T14:11:34;99937.06;;;13.13;100.00
30724;BME280;17473;52.286;20.930;2022-10-22T14:14:02;99942.44;;;13.17;100.00
30724;BME280;17473;52.286;20.930;2022-10-22T14:16:31;99943.34;;;13.17;100.00
30724;BME280;17473;52.286;20.930;2022-10-22T14:19:00;99946.00;;;13.19;100.00
30724;BME280;17473;52.286;20.930;2022-10-22T14:21:33;99941.66;;;13.24;100.00
30724;BME280;17473;52.286;20.930;2022-10-22T14:24:01;99941.63;;;13.21;100.00
30724;BME280;17473;52.286;20.930;2022-10-22T14:26:31;99942.38;;;13.13;100.00
30724;BME280;17473;52.286;20.930;2022-10-22T14:28:59;99930.03;;;13.14;100.00
30724;BME280;17473;52.286;20.930;2022-10-22T14:31:43;99929.25;;;13.20;100.00
30724;BME280;17473;52.286;20.930;2022-10-22T14:34:14;99928.47;;;13.28;100.00
30724;BME280;17473;52.286;20.930;2022-10-22T14:36:42;99929.41;;;13.30;100.00
30724;BME280;17473;52.286;20.930;2022-10-22T14:39:11;99923.06;;;13.21;100.00
30724;BME280;17473;52.286;20.930;2022-10-22T14:41:38;99927.47;;;13.20;100.00
30724;BME280;17473;52.286;20.930;2022-10-22T14:44:09;99929.19;;;13.18;100.00
30724;BME280;17473;52.286;20.930;2022-10-22T14:46:39;99932.81;;;13.22;100.00
30724;BME280;17473;52.286;20.930;2022-10-22T14:49:08;99933.63;;;13.18;100.00
30724;BME280;17473;52.286;20.930;2022-10-22T14:51:35;99933.72;;;13.24;100.00